Time;durP1;ratioP1;P1;durP2;ratioP2;P2;SDS_P1;SDS_P2;PMS_P1;PMS_P2;Temp;Humidity;BMP_temperature;BMP_pressure;BME280_temperature;BME280_humidity;BME280_pressure;Samples;Min_cycle;Max_cycle;Signal;HPM_P1;HPM_P2
2021/05/03 00:01:51;;;;;;;14.63;7.20;;;;;;;0.84;100.00;102191.59;5174451;28;20032;-79
2021/05/03 00:04:22;;;;;;;19.58;9.48;;;;;;;0.79;100.00;102190.94;5185701;28;20029;-80
2021/05/03 00:06:52;;;;;;;18.10;9.02;;;;;;;1.95;100.00;102182.66;5177158;28;20038;-80
2021/05/03 00:09:22;;;;;;;11.77;6.30;;;;;;;2.10;100.00;102185.47;5184786;28;20018;-80
2021/05/03 00:11:53;;;;;;;10.15;5.68;;;;;;;1.86;100.00;102183.16;5170249;28;20515;-80
2021/05/03 00:14:23;;;;;;;10.43;5.70;;;;;;;1.55;100.00;102176.72;5185228;28;20387;-79
2021/05/03 00:16:54;;;;;;;14.00;6.53;;;;;;;1.47;100.00;102178.03;5184367;28;20038;-80
2021/05/03 00:19:24;;;;;;;18.00;6.72;;;;;;;1.44;100.00;102175.53;5156727;28;20022;-80
2021/05/03 00:21:55;;;;;;;14.15;7.38;;;;;;;1.35;100.00;102173.34;5184660;28;20061;-79
2021/05/03 00:24:25;;;;;;;15.73;7.15;;;;;;;1.11;100.00;102178.03;5205444;28;20022;-80
2021/05/03 00:26:56;;;;;;;16.58;7.63;;;;;;;1.00;100.00;102174.13;5178101;28;20051;-79
2021/05/03 00:29:26;;;;;;;14.13;7.40;;;;;;;0.94;100.00;102176.16;5189453;28;20020;-80
2021/05/03 00:31:57;;;;;;;14.80;7.75;;;;;;;0.84;100.00;102170.44;5177571;28;20471;-80
2021/05/03 00:34:27;;;;;;;12.93;7.38;;;;;;;0.78;100.00;102173.38;5181490;28;20045;-79
2021/05/03 00:36:57;;;;;;;17.30;8.07;;;;;;;0.68;100.00;102180.03;5175643;28;20377;-80
2021/05/03 00:39:28;;;;;;;16.25;8.55;;;;;;;0.58;100.00;102176.94;5177497;28;20026;-79
2021/05/03 00:41:59;;;;;;;13.55;7.05;;;;;;;0.49;100.00;102175.56;5173798;28;20050;-80
2021/05/03 00:44:29;;;;;;;18.45;8.10;;;;;;;0.41;100.00;102163.66;5172276;28;20387;-79
2021/05/03 00:47:00;;;;;;;16.48;7.63;;;;;;;0.30;100.00;102163.25;5189561;28;20033;-79
2021/05/03 00:49:30;;;;;;;18.05;7.18;;;;;;;0.30;100.00;102160.59;5163723;28;20027;-80
2021/05/03 00:52:01;;;;;;;20.60;7.60;;;;;;;0.33;100.00;102163.13;5172138;28;20476;-80
2021/05/03 00:54:31;;;;;;;15.05;7.68;;;;;;;0.33;100.00;102161.34;5183420;28;20053;-79
2021/05/03 00:57:02;;;;;;;18.17;7.45;;;;;;;0.34;100.00;102157.78;5172008;28;20030;-80
2021/05/03 00:59:32;;;;;;;15.93;7.45;;;;;;;0.42;100.00;102160.94;5169973;28;20030;-79
2021/05/03 01:02:03;;;;;;;16.48;7.15;;;;;;;0.67;100.00;102162.47;5170740;28;20057;-79
2021/05/03 01:04:33;;;;;;;14.10;7.07;;;;;;;0.69;100.00;102155.31;5173222;28;20025;-79
2021/05/03 01:07:04;;;;;;;14.57;7.28;;;;;;;0.69;100.00;102155.31;5180319;28;20046;-79
2021/05/03 01:09:35;;;;;;;16.30;7.30;;;;;;;0.97;100.00;102158.41;5184278;28;20046;-79
2021/05/03 01:12:06;;;;;;;16.85;7.85;;;;;;;0.76;100.00;102160.25;5170211;28;20428;-80
2021/05/03 01:14:36;;;;;;;15.95;7.13;;;;;;;0.40;100.00;102161.91;5176245;28;20030;-80
2021/05/03 01:17:07;;;;;;;15.20;7.05;;;;;;;0.24;100.00;102162.59;5177862;28;20037;-79
2021/05/03 01:19:38;;;;;;;15.27;7.18;;;;;;;0.19;100.00;102161.94;5167782;28;20160;-79
2021/05/03 01:22:08;;;;;;;15.95;6.78;;;;;;;0.16;100.00;102163.88;5178612;28;20075;-80
2021/05/03 01:24:39;;;;;;;19.23;7.05;;;;;;;0.09;100.00;102160.63;5182890;28;20101;-79
2021/05/03 01:27:09;;;;;;;13.65;6.95;;;;;;;0.00;100.00;102158.41;5166760;28;20036;-79
2021/05/03 01:29:39;;;;;;;14.98;6.53;;;;;;;-0.07;100.00;102165.72;5165283;28;20056;-80
2021/05/03 01:32:10;;;;;;;29.30;13.52;;;;;;;0.14;100.00;102165.72;5190798;28;20341;-79
2021/05/03 01:34:42;;;;;;;26.92;11.60;;;;;;;1.20;100.00;102156.41;5166136;28;20034;-79
2021/05/03 01:37:15;;;;;;;15.30;6.53;;;;;;;1.20;100.00;102164.34;5168600;28;20022;-79
2021/05/03 01:39:45;;;;;;;12.73;6.38;;;;;;;1.07;100.00;102163.25;5183318;28;20037;-79
2021/05/03 01:42:16;;;;;;;14.10;6.18;;;;;;;0.83;100.00;102159.97;5173762;28;20053;-79
2021/05/03 01:44:47;;;;;;;16.70;6.45;;;;;;;0.61;100.00;102162.75;5166005;28;20472;-79
2021/05/03 01:47:20;;;;;;;11.30;6.22;;;;;;;0.48;100.00;102167.72;5184907;28;20076;-80
2021/05/03 01:49:51;;;;;;;15.40;6.85;;;;;;;0.38;100.00;102161.13;5178131;28;20022;-80
2021/05/03 01:52:22;;;;;;;13.57;6.25;;;;;;;0.30;100.00;102163.25;5175709;28;20030;-79
2021/05/03 01:54:53;;;;;;;17.13;7.25;;;;;;;0.30;100.00;102168.53;5176836;28;20037;-79
2021/05/03 01:57:23;;;;;;;23.20;9.90;;;;;;;0.38;100.00;102174.34;5179849;28;20025;-79
2021/05/03 01:59:59;;;;;;;15.23;7.25;;;;;;;0.30;100.00;102177.31;5185512;28;20059;-79
2021/05/03 02:02:30;;;;;;;9.38;5.60;;;;;;;0.10;100.00;102172.94;5179869;28;20026;-80
2021/05/03 02:05:02;;;;;;;14.23;6.55;;;;;;;0.00;100.00;102174.25;5168837;28;20031;-80
2021/05/03 02:07:34;;;;;;;15.35;7.25;;;;;;;-0.11;100.00;102169.41;5178258;28;20062;-79
2021/05/03 02:10:06;;;;;;;15.43;6.55;;;;;;;-0.22;100.00;102171.66;5171876;28;20084;-79
2021/05/03 02:12:38;;;;;;;13.05;6.80;;;;;;;-0.23;100.00;102172.56;5158083;28;20069;-80
2021/05/03 02:15:09;;;;;;;13.57;7.55;;;;;;;-0.09;100.00;102175.50;5174024;28;20071;-80
2021/05/03 02:17:40;;;;;;;13.05;7.05;;;;;;;0.04;100.00;102173.16;5176313;28;20022;-80
2021/05/03 02:20:11;;;;;;;27.17;12.40;;;;;;;0.49;100.00;102169.44;5156130;28;20019;-80
2021/05/03 02:22:44;;;;;;;27.40;12.43;;;;;;;2.32;100.00;102173.69;5168690;28;20034;-80
2021/05/03 02:25:15;;;;;;;17.75;9.40;;;;;;;2.16;100.00;102169.25;5180742;28;20461;-79
2021/05/03 02:27:45;;;;;;;10.20;5.80;;;;;;;1.74;100.00;102163.44;5169471;28;20373;-80
2021/05/03 02:30:17;;;;;;;9.98;5.72;;;;;;;1.33;100.00;102157.56;5189893;28;20032;-79
2021/05/03 02:32:48;;;;;;;10.73;5.80;;;;;;;1.04;100.00;102158.94;5173192;28;20030;-80
2021/05/03 02:35:20;;;;;;;14.35;6.80;;;;;;;1.43;100.00;102156.16;5168513;28;20099;-80
2021/05/03 02:37:56;;;;;;;15.75;6.55;;;;;;;1.11;100.00;102151.59;5172628;28;20161;-80
2021/05/03 02:40:26;;;;;;;;;;;;;;;0.84;100.00;102146.69;5189268;28;20029;-80
2021/05/03 02:42:59;;;;;;;10.57;5.30;;;;;;;0.58;100.00;102150.53;5182258;28;19917;-80
2021/05/03 02:45:31;;;;;;;14.85;6.10;;;;;;;0.36;100.00;102150.66;5168321;28;20049;-80
2021/05/03 02:48:02;;;;;;;10.98;7.18;;;;;;;0.21;100.00;102154.84;5177522;28;20026;-79
2021/05/03 02:50:32;;;;;;;13.70;6.85;;;;;;;0.04;100.00;102162.59;5187003;28;20030;-80
2021/05/03 02:53:03;;;;;;;13.02;6.55;;;;;;;-0.09;100.00;102156.16;5178257;28;20576;-80
2021/05/03 02:55:34;;;;;;;14.23;6.05;;;;;;;0.08;100.00;102158.06;5187531;28;20040;-80
2021/05/03 02:58:04;;;;;;;13.95;6.68;;;;;;;-0.01;100.00;102146.13;5185559;28;20050;-79
2021/05/03 03:00:35;;;;;;;11.55;6.40;;;;;;;0.02;100.00;102148.63;5170182;28;20462;-80
2021/05/03 03:03:06;;;;;;;15.25;7.20;;;;;;;-0.01;100.00;102149.63;5195891;28;20033;-80
2021/05/03 03:05:36;;;;;;;16.85;9.20;;;;;;;0.18;100.00;102147.03;5164186;28;20477;-79
2021/05/03 03:08:07;;;;;;;16.77;8.88;;;;;;;0.36;100.00;102139.25;5181780;28;20460;-80
2021/05/03 03:10:37;;;;;;;11.95;6.70;;;;;;;0.29;100.00;102141.28;5188148;28;20398;-80
2021/05/03 03:13:08;;;;;;;13.65;6.60;;;;;;;0.24;100.00;102146.75;5188374;28;20076;-79
2021/05/03 03:15:39;;;;;;;12.68;6.63;;;;;;;0.83;100.00;102141.47;5188923;28;20057;-80
2021/05/03 03:18:09;;;;;;;14.20;7.00;;;;;;;0.97;100.00;102139.03;5173070;28;20019;-80
2021/05/03 03:20:40;;;;;;;16.60;5.50;;;;;;;0.74;100.00;102138.31;5183257;28;20436;-80
2021/05/03 03:23:11;;;;;;;13.73;6.47;;;;;;;0.51;100.00;102138.53;5171040;28;20049;-80
2021/05/03 03:25:42;;;;;;;15.30;6.72;;;;;;;0.32;100.00;102135.88;5188009;28;20029;-80
2021/05/03 03:28:12;;;;;;;11.85;6.30;;;;;;;0.15;100.00;102138.38;5170962;28;20057;-80
2021/05/03 03:30:42;;;;;;;11.98;6.32;;;;;;;0.02;100.00;102134.59;5184740;28;20037;-80
2021/05/03 03:33:13;;;;;;;14.82;7.43;;;;;;;-0.07;100.00;102126.16;5172126;28;20072;-80
2021/05/03 03:35:43;;;;;;;104.72;17.80;;;;;;;-0.11;100.00;102123.69;5183244;28;20090;-80
2021/05/03 03:38:14;;;;;;;1583.90;185.80;;;;;;;0.17;100.00;102126.84;5180843;28;20037;-80
2021/05/03 03:40:45;;;;;;;1877.15;265.38;;;;;;;0.43;100.00;102125.69;5192572;28;20373;-80
2021/05/03 03:43:15;;;;;;;23.90;10.25;;;;;;;1.57;100.00;102130.84;5187399;28;20026;-80
2021/05/03 03:45:45;;;;;;;11.82;6.60;;;;;;;1.38;100.00;102122.97;5185146;28;20045;-80
2021/05/03 03:48:16;;;;;;;24.10;11.27;;;;;;;1.64;100.00;102117.22;5176979;28;20026;-80
2021/05/03 03:50:46;;;;;;;18.67;9.40;;;;;;;2.02;100.00;102117.91;5173420;28;20018;-80
2021/05/03 03:53:17;;;;;;;11.82;5.82;;;;;;;1.76;100.00;102115.75;5174847;28;20034;-80
2021/05/03 03:55:47;;;;;;;12.80;6.53;;;;;;;1.49;100.00;102120.63;5173937;28;20022;-80
2021/05/03 03:58:18;;;;;;;14.80;6.55;;;;;;;1.49;100.00;102125.91;5185571;28;20022;-80
2021/05/03 04:00:48;;;;;;;25.83;12.38;;;;;;;2.05;100.00;102120.38;5180342;28;20480;-80
2021/05/03 04:03:21;;;;;;;16.02;8.43;;;;;;;2.33;100.00;102124.22;5167609;28;20038;-80
2021/05/03 04:06:12;;;;;;;9.90;5.78;;;;;;;2.02;100.00;102117.91;5167302;28;20037;-80
2021/05/03 04:08:49;;;;;;;17.80;6.63;;;;;;;1.51;100.00;102118.78;5166789;28;20432;-80
2021/05/03 04:24:51;;;;;;;38.30;15.52;;;;;;;0.64;100.00;102122.97;5169652;28;20022;-79
2021/05/03 04:27:22;;;;;;;17.90;7.60;;;;;;;1.02;100.00;102123.81;5173538;28;20034;-80
2021/05/03 04:29:52;;;;;;;19.30;8.02;;;;;;;1.33;100.00;102135.53;5172121;28;20561;-80
2021/05/03 04:32:22;;;;;;;16.35;6.68;;;;;;;1.36;100.00;102130.97;5190330;28;20045;-80
2021/05/03 04:34:53;;;;;;;14.05;6.80;;;;;;;1.32;100.00;102123.25;5191254;28;20017;-80
2021/05/03 04:37:23;;;;;;;15.23;6.45;;;;;;;1.59;100.00;102127.16;5186180;28;20029;-80
2021/05/03 04:39:54;;;;;;;19.58;7.28;;;;;;;1.49;100.00;102124.13;5177874;28;20529;-80
2021/05/03 04:42:24;;;;;;;16.98;6.63;;;;;;;1.45;100.00;102119.91;5188205;28;20503;-80
2021/05/03 04:44:55;;;;;;;16.45;7.57;;;;;;;1.38;100.00;102122.97;5181393;28;20108;-80
2021/05/03 04:47:25;;;;;;;15.63;6.82;;;;;;;1.35;100.00;102120.44;5190811;28;20018;-80
2021/05/03 04:49:56;;;;;;;18.02;7.57;;;;;;;1.35;100.00;102121.31;5179307;28;20030;-80
2021/05/03 04:52:26;;;;;;;17.17;6.60;;;;;;;1.39;100.00;102114.09;5166435;28;20088;-80
2021/05/03 04:54:57;;;;;;;18.55;7.10;;;;;;;1.43;100.00;102118.28;5182802;28;20037;-80
2021/05/03 04:57:28;;;;;;;17.02;7.38;;;;;;;1.49;100.00;102110.91;5182496;28;20492;-80
2021/05/03 04:59:58;;;;;;;19.13;6.75;;;;;;;1.52;100.00;102112.56;5170199;28;20026;-80
2021/05/03 05:02:29;;;;;;;16.75;6.50;;;;;;;1.60;100.00;102113.00;5176520;28;20456;-80
2021/05/03 05:05:00;;;;;;;15.23;6.63;;;;;;;1.69;100.00;102115.19;5187976;28;20430;-80
2021/05/03 05:07:31;;;;;;;18.98;7.05;;;;;;;1.78;100.00;102108.56;5179556;28;20029;-79
2021/05/03 05:10:01;;;;;;;14.77;7.32;;;;;;;1.86;100.00;102118.75;5188069;28;20022;-81
2021/05/03 05:12:32;;;;;;;13.55;6.65;;;;;;;2.03;100.00;102108.16;5187306;28;20018;-80
2021/05/03 05:15:05;;;;;;;13.82;7.18;;;;;;;2.16;100.00;102116.28;5189332;28;20038;-81
2021/05/03 05:17:36;;;;;;;15.85;7.45;;;;;;;2.22;100.00;102106.25;5186353;28;20022;-80
2021/05/03 05:20:07;;;;;;;12.82;6.70;;;;;;;2.28;100.00;102113.00;5167477;28;20472;-80
2021/05/03 05:22:38;;;;;;;11.02;6.63;;;;;;;2.32;100.00;102111.91;5166334;28;20030;-80
2021/05/03 05:25:10;;;;;;;12.57;6.15;;;;;;;2.37;100.00;102107.22;5186154;28;20064;-80
2021/05/03 05:27:41;;;;;;;11.43;6.60;;;;;;;2.69;100.00;102105.47;5172200;28;20113;-80
2021/05/03 05:30:12;;;;;;;12.40;6.57;;;;;;;2.98;100.00;102101.19;5201490;28;20120;-81
2021/05/03 05:32:42;;;;;;;15.32;6.57;;;;;;;3.22;100.00;102109.56;5169669;28;20033;-80
2021/05/03 05:35:13;;;;;;;14.40;7.18;;;;;;;3.43;100.00;102103.94;5175447;28;20036;-81
2021/05/03 05:37:43;;;;;;;13.02;6.47;;;;;;;3.62;100.00;102112.53;5172340;28;20037;-81
2021/05/03 05:40:14;;;;;;;23.88;10.15;;;;;;;3.76;100.00;102115.22;5185356;28;20541;-82
2021/05/03 05:42:44;;;;;;;28.38;11.88;;;;;;;4.08;100.00;102120.41;5180803;28;20030;-82
2021/05/03 05:45:16;;;;;;;15.20;6.45;;;;;;;4.77;100.00;102113.44;5163778;28;20380;-81
2021/05/03 05:47:46;;;;;;;12.73;6.55;;;;;;;5.75;100.00;102113.16;5164411;28;20602;-82
2021/05/03 05:50:17;;;;;;;16.02;6.03;;;;;;;6.80;100.00;102109.41;5177466;28;20120;-82
2021/05/03 05:52:47;;;;;;;11.45;5.47;;;;;;;7.10;100.00;102106.31;5168440;28;20022;-82
2021/05/03 05:55:18;;;;;;;13.65;5.00;;;;;;;7.91;100.00;102113.53;5183358;28;20038;-82
2021/05/03 05:57:48;;;;;;;13.57;5.28;;;;;;;8.07;100.00;102110.53;5176888;28;20141;-80
2021/05/03 06:00:19;;;;;;;15.60;5.80;;;;;;;8.26;100.00;102116.16;5181736;28;20116;-81
2021/05/03 06:02:49;;;;;;;10.60;6.00;;;;;;;8.53;100.00;102115.81;5167535;28;20026;-79
2021/05/03 06:05:21;;;;;;;14.90;5.50;;;;;;;8.79;97.69;102105.72;5184870;28;20495;-82
2021/05/03 06:07:52;;;;;;;9.70;4.78;;;;;;;8.71;100.00;102100.97;5177321;28;20049;-80
2021/05/03 06:10:22;;;;;;;11.52;5.85;;;;;;;8.75;98.88;102104.25;5180852;28;20026;-81
2021/05/03 06:12:53;;;;;;;11.15;5.20;;;;;;;8.97;97.20;102106.03;5179719;28;20064;-81
2021/05/03 06:15:23;;;;;;;11.45;5.25;;;;;;;9.00;95.93;102100.44;5173874;28;20040;-80
2021/05/03 06:17:54;;;;;;;8.95;4.82;;;;;;;9.53;85.61;102109.38;5173745;28;20126;-79
2021/05/03 06:20:24;;;;;;;10.07;5.30;;;;;;;9.08;94.23;102098.81;5167942;28;20379;-81
2021/05/03 06:22:59;;;;;;;9.95;5.53;;;;;;;8.40;100.00;102101.75;5168317;28;20065;-80
2021/05/03 06:25:30;;;;;;;11.02;6.05;;;;;;;8.18;100.00;102103.41;5188406;28;20033;-80
2021/05/03 06:28:01;;;;;;;11.35;5.88;;;;;;;7.84;100.00;102101.66;5169882;28;20065;-80
2021/05/03 06:30:32;;;;;;;12.27;6.18;;;;;;;7.75;100.00;102105.88;5178699;28;20104;-79
2021/05/03 06:33:03;;;;;;;15.23;6.53;;;;;;;7.75;100.00;102105.88;5190095;28;20093;-79
2021/05/03 06:35:33;;;;;;;21.45;7.47;;;;;;;7.77;100.00;102106.59;5176329;28;20062;-80
2021/05/03 06:38:06;;;;;;;17.35;7.93;;;;;;;7.88;100.00;102114.66;5175276;28;20037;-81
2021/05/03 06:40:36;;;;;;;14.13;7.63;;;;;;;7.80;100.00;102103.69;5188639;28;20029;-79
2021/05/03 06:43:07;;;;;;;19.80;8.57;;;;;;;8.07;100.00;102114.06;5196500;28;20499;-80
2021/05/03 06:45:37;;;;;;;16.13;7.65;;;;;;;8.20;100.00;102111.28;5183507;28;20036;-80
2021/05/03 06:48:09;;;;;;;19.08;9.20;;;;;;;8.21;100.00;102110.31;5189299;28;20400;-80
2021/05/03 06:50:43;;;;;;;28.27;10.13;;;;;;;8.36;100.00;102109.13;5175549;28;20551;-81
2021/05/03 06:53:14;;;;;;;22.10;11.10;;;;;;;8.50;100.00;102108.06;5156300;28;20037;-81
2021/05/03 06:55:46;;;;;;;20.50;11.23;;;;;;;8.65;100.00;102106.84;5170416;28;20017;-79
2021/05/03 06:58:17;;;;;;;21.00;11.68;;;;;;;8.79;100.00;102108.41;5173130;28;20101;-79
2021/05/03 07:00:47;;;;;;;20.38;11.25;;;;;;;8.94;100.00;102114.34;5187235;28;20057;-81
2021/05/03 07:03:18;;;;;;;21.70;11.13;;;;;;;8.99;100.00;102121.03;5173681;28;20057;-82
2021/05/03 07:05:48;;;;;;;21.33;11.73;;;;;;;9.19;100.00;102116.72;5192049;28;20356;-82
2021/05/03 07:08:24;;;;;;;27.35;13.23;;;;;;;9.14;100.00;102121.59;5190373;28;20322;-80
2021/05/03 07:10:54;;;;;;;25.90;13.60;;;;;;;9.29;100.00;102122.16;5172109;28;20082;-79
2021/05/03 07:13:25;;;;;;;25.13;13.18;;;;;;;9.39;100.00;102122.22;5172194;28;20057;-79
2021/05/03 07:15:55;;;;;;;28.88;14.65;;;;;;;9.45;100.00;102122.56;5183448;28;20098;-80
2021/05/03 07:18:26;;;;;;;34.38;14.57;;;;;;;9.62;100.00;102120.31;5174132;28;20034;-80
2021/05/03 07:20:56;;;;;;;32.97;17.42;;;;;;;9.71;100.00;102115.03;5184068;28;20109;-80
2021/05/03 07:23:27;;;;;;;33.92;16.70;;;;;;;9.74;100.00;102116.56;5171900;28;20480;-80
2021/05/03 07:25:59;;;;;;;34.38;15.95;;;;;;;9.85;100.00;102113.88;5171840;28;20145;-83
2021/05/03 07:28:29;;;;;;;28.85;16.15;;;;;;;10.04;100.00;102114.00;5179880;28;20025;-81
2021/05/03 07:31:01;;;;;;;28.88;16.90;;;;;;;9.98;100.00;102117.16;5177482;28;20088;-82
2021/05/03 07:33:31;;;;;;;30.42;16.17;;;;;;;10.19;100.00;102114.50;5181662;28;20022;-79
2021/05/03 07:36:02;;;;;;;27.10;15.10;;;;;;;10.36;100.00;102113.06;5176271;28;20068;-81
2021/05/03 07:38:32;;;;;;;28.25;15.55;;;;;;;10.34;100.00;102117.69;5181085;28;20034;-82
2021/05/03 07:41:03;;;;;;;25.98;14.50;;;;;;;10.47;100.00;102102.22;5187122;28;20030;-81
2021/05/03 07:43:35;;;;;;;33.75;15.93;;;;;;;10.53;100.00;102106.19;5174070;28;20030;-82
2021/05/03 07:46:06;;;;;;;29.45;13.70;;;;;;;10.73;100.00;102099.06;5169764;28;20042;-81
2021/05/03 07:48:36;;;;;;;34.10;15.45;;;;;;;10.91;100.00;102100.09;5181348;28;20022;-82
2021/05/03 07:51:07;;;;;;;30.92;14.00;;;;;;;11.02;97.00;102089.25;5181817;28;20038;-82
2021/05/03 07:53:37;;;;;;;26.20;13.93;;;;;;;11.27;99.59;102103.13;5182734;28;20105;-81
2021/05/03 07:56:08;;;;;;;25.35;13.98;;;;;;;11.35;97.24;102089.84;5189265;28;20038;-81
2021/05/03 07:58:38;;;;;;;24.52;14.73;;;;;;;11.57;95.16;102089.56;5182715;28;20030;-82
2021/05/03 08:01:10;;;;;;;24.92;13.07;;;;;;;11.81;92.26;102097.19;5167171;28;20031;-83
2021/05/03 08:03:41;;;;;;;29.10;14.13;;;;;;;12.12;87.75;102095.16;5182242;28;20377;-83
2021/05/03 08:06:14;;;;;;;25.90;13.57;;;;;;;12.06;79.53;102098.44;5177176;28;20080;-81
2021/05/03 08:08:46;;;;;;;27.67;13.80;;;;;;;12.11;83.27;102090.78;5201600;28;20080;-82
2021/05/03 08:11:18;;;;;;;26.20;13.57;;;;;;;12.06;75.83;102082.28;5187178;28;20470;-83
2021/05/03 08:13:48;;;;;;;26.15;12.70;;;;;;;12.01;75.46;102076.50;5169511;28;20346;-81
2021/05/03 08:16:21;;;;;;;24.38;12.85;;;;;;;11.79;71.53;102072.25;5187346;28;20049;-82
2021/05/03 08:18:52;;;;;;;29.48;14.73;;;;;;;11.74;74.97;102071.84;5159434;28;20518;-82
2021/05/03 08:21:22;;;;;;;26.65;13.70;;;;;;;12.06;83.15;102068.84;5178343;28;20046;-82
2021/05/03 08:23:53;;;;;;;21.10;12.52;;;;;;;12.50;77.14;102063.72;5168989;28;20034;-82
2021/05/03 08:26:23;;;;;;;31.63;12.93;;;;;;;12.78;70.16;102061.84;5168200;28;20037;-81
2021/05/03 08:28:54;;;;;;;23.20;12.43;;;;;;;12.85;72.44;102068.34;5178778;28;20116;-83
2021/05/03 08:31:24;;;;;;;22.75;13.05;;;;;;;12.70;66.99;102068.00;5187244;28;20029;-83
2021/05/03 08:33:55;;;;;;;20.45;11.18;;;;;;;12.50;64.52;102071.78;5175952;28;20034;-82
2021/05/03 08:36:25;;;;;;;17.48;11.43;;;;;;;12.44;64.66;102061.59;5177938;28;20162;-82
2021/05/03 08:38:56;;;;;;;19.55;11.65;;;;;;;12.50;65.83;102055.66;5182012;28;20116;-83
2021/05/03 08:41:27;;;;;;;20.17;11.00;;;;;;;12.48;61.26;102054.94;5178249;28;20026;-83
2021/05/03 08:43:57;;;;;;;21.13;12.07;;;;;;;12.62;63.92;102062.50;5166188;28;20034;-82
2021/05/03 08:46:29;;;;;;;21.75;11.27;;;;;;;12.55;60.10;102057.84;5185521;28;20036;-84
2021/05/03 08:49:05;;;;;;;22.02;11.70;;;;;;;12.81;64.23;102064.25;5181646;28;20026;-85
2021/05/03 08:51:44;;;;;;;19.33;12.25;;;;;;;12.76;63.81;102061.16;5174807;28;20561;-84
2021/05/03 08:54:24;;;;;;;20.27;11.38;;;;;;;12.96;65.49;102057.34;5200177;28;20037;-84
2021/05/03 08:56:54;;;;;;;21.55;11.18;;;;;;;13.04;61.87;102053.03;5172053;28;20417;-83
2021/05/03 08:59:25;;;;;;;19.92;11.38;;;;;;;13.18;59.21;102056.03;5176324;28;20037;-83
2021/05/03 09:01:58;;;;;;;18.48;10.90;;;;;;;13.05;58.14;102054.72;5165288;28;20030;-84
2021/05/03 09:04:29;;;;;;;18.25;11.13;;;;;;;13.15;59.22;102056.34;5162801;28;20030;-83
2021/05/03 09:07:07;;;;;;;20.98;11.15;;;;;;;13.07;57.94;102053.56;5163104;28;20076;-83
2021/05/03 09:09:39;;;;;;;25.83;11.70;;;;;;;13.31;58.48;102060.25;5176009;28;20037;-84
2021/05/03 09:12:12;;;;;;;22.05;11.77;;;;;;;13.53;58.39;102048.13;5185309;28;20022;-84
2021/05/03 09:14:51;;;;;;;20.75;11.77;;;;;;;13.45;58.05;102046.19;5174761;28;20033;-83
2021/05/03 09:17:22;;;;;;;20.25;11.15;;;;;;;13.78;57.32;102035.66;5186595;28;20439;-83
2021/05/03 09:19:54;;;;;;;17.98;10.75;;;;;;;13.90;55.88;102046.00;5182150;28;20392;-84
2021/05/03 09:22:40;;;;;;;19.33;11.80;;;;;;;14.06;57.04;102039.06;5176083;28;20430;-84
2021/05/03 09:25:15;;;;;;;17.73;11.02;;;;;;;13.63;53.87;102030.84;5178314;28;20026;-84
2021/05/03 09:27:47;;;;;;;17.58;10.48;;;;;;;13.65;55.21;102027.97;5165729;28;20172;-84
2021/05/03 09:30:44;;;;;;;18.17;11.82;;;;;;;13.67;56.07;102023.28;5179452;28;20495;-84
2021/05/03 09:33:17;;;;;;;25.92;11.20;;;;;;;13.66;56.56;102018.91;5186651;28;20565;-84
2021/05/03 09:35:55;;;;;;;21.30;11.40;;;;;;;13.94;58.47;102016.88;5172499;28;20121;-83
2021/05/03 09:38:28;;;;;;;19.38;10.85;;;;;;;14.01;53.21;102009.84;5166591;28;20069;-82
2021/05/03 09:41:08;;;;;;;22.63;11.82;;;;;;;14.14;55.69;102004.00;5165592;28;20030;-83
2021/05/03 09:43:40;;;;;;;22.00;12.25;;;;;;;14.19;55.23;102002.50;5166695;28;20034;-84
2021/05/03 09:46:28;;;;;;;21.00;10.52;;;;;;;14.29;55.57;102004.22;5177670;28;20392;-84
2021/05/03 09:49:11;;;;;;;17.15;9.40;;;;;;;14.35;52.36;102006.28;5178441;28;20035;-84
2021/05/03 09:51:44;;;;;;;15.55;8.43;;;;;;;14.56;51.95;101997.75;5159623;28;20065;-85
2021/05/03 09:54:15;;;;;;;14.40;8.02;;;;;;;14.74;47.53;101990.38;5171018;28;20503;-84
2021/05/03 09:56:51;;;;;;;16.63;8.05;;;;;;;14.70;46.40;101980.91;5169544;28;20339;-83
2021/05/03 09:59:24;;;;;;;11.40;7.50;;;;;;;14.31;46.86;101986.00;5175050;28;20057;-85
2021/05/03 10:02:06;;;;;;;16.10;7.13;;;;;;;14.35;47.77;101979.28;5184158;28;20033;-83
2021/05/03 10:04:38;;;;;;;12.60;7.47;;;;;;;14.36;46.77;101986.38;5187319;28;20053;-84
2021/05/03 10:07:08;;;;;;;12.48;7.30;;;;;;;14.29;47.96;101964.59;5186162;28;20025;-82
2021/05/03 10:09:39;;;;;;;14.40;8.70;;;;;;;14.51;48.85;101963.19;5172882;28;20030;-85
2021/05/03 10:12:09;;;;;;;14.13;7.63;;;;;;;14.64;46.59;101960.81;5183677;28;20097;-81
2021/05/03 10:14:40;;;;;;;10.70;6.97;;;;;;;14.80;47.43;101953.75;5187619;28;20610;-81
2021/05/03 10:17:12;;;;;;;11.40;7.10;;;;;;;14.93;44.92;101957.66;5179915;28;20064;-80
2021/05/03 10:19:45;;;;;;;16.38;6.63;;;;;;;14.76;45.33;101940.59;5165044;28;20019;-81
2021/05/03 10:22:17;;;;;;;13.70;7.10;;;;;;;15.09;46.98;101956.81;5176029;28;20434;-84
2021/05/03 10:24:54;;;;;;;9.77;6.38;;;;;;;15.30;44.76;101934.66;5182747;28;20069;-83
2021/05/03 10:27:25;;;;;;;10.45;6.45;;;;;;;15.47;45.02;101932.81;5165932;28;20030;-84
2021/05/03 10:30:04;;;;;;;14.32;7.03;;;;;;;15.21;43.76;101920.34;5163376;28;20392;-81
2021/05/03 10:32:35;;;;;;;11.18;7.13;;;;;;;15.10;46.70;101936.03;5167966;28;20114;-82
2021/05/03 10:35:22;;;;;;;12.45;6.75;;;;;;;15.15;45.17;101929.09;5185246;28;20029;-81
2021/05/03 10:37:54;;;;;;;11.25;6.35;;;;;;;15.06;43.64;101913.94;5167611;28;20029;-80
2021/05/03 10:40:26;;;;;;;17.35;7.15;;;;;;;15.34;43.52;101918.97;5183890;28;20030;-84
2021/05/03 10:43:03;;;;;;;12.32;7.43;;;;;;;15.93;43.47;101914.94;5179478;28;20038;-84
2021/05/03 10:45:43;;;;;;;13.95;7.07;;;;;;;15.92;42.41;101907.84;5175400;28;20025;-84
2021/05/03 10:48:38;;;;;;;10.40;5.13;;;;;;;15.85;41.54;101906.84;5162602;28;20080;-86
2021/05/03 10:51:30;;;;;;;11.93;5.93;;;;;;;15.58;39.06;101899.13;5162052;28;20088;-85
2021/05/03 10:57:06;;;;;;;11.73;6.07;;;;;;;15.62;42.56;101895.91;5180487;28;20120;-83
2021/05/03 10:59:55;;;;;;;9.20;5.00;;;;;;;15.32;39.14;101885.84;5182996;28;20026;-83
2021/05/03 11:02:44;;;;;;;14.25;6.15;;;;;;;15.05;40.17;101895.16;5169198;28;20049;-83
2021/05/03 11:05:22;;;;;;;9.85;5.25;;;;;;;14.99;39.18;101883.19;5181835;28;20077;-82
2021/05/03 11:08:04;;;;;;;18.42;5.75;;;;;;;14.93;37.93;101883.88;5163805;28;20105;-84
2021/05/03 11:11:03;;;;;;;8.60;5.28;;;;;;;14.70;39.14;101875.59;5169362;28;20088;-84
2021/05/03 11:13:36;;;;;;;12.88;5.70;;;;;;;14.43;37.56;101865.94;5167854;28;20229;-85
2021/05/03 11:16:25;;;;;;;8.32;4.95;;;;;;;14.49;40.42;101868.81;5169403;28;20034;-84
2021/05/03 11:18:58;;;;;;;8.38;5.00;;;;;;;14.82;41.21;101866.16;5164346;28;20026;-83
2021/05/03 11:21:40;;;;;;;12.20;5.43;;;;;;;15.07;40.61;101868.84;5195520;28;20065;-82
2021/05/03 11:24:21;;;;;;;9.30;5.60;;;;;;;15.30;40.78;101867.09;5182955;28;20034;-84
2021/05/03 11:26:58;;;;;;;12.38;5.95;;;;;;;15.62;41.30;101866.16;5152046;28;20022;-84
2021/05/03 11:29:36;;;;;;;18.23;10.40;;;;;;;15.42;39.41;101859.47;5175258;28;20030;-83
2021/05/03 11:32:07;;;;;;;11.98;6.53;;;;;;;15.36;40.78;101854.72;5165280;28;20027;-83
2021/05/03 11:34:52;;;;;;;10.95;5.70;;;;;;;15.63;39.93;101853.47;5166126;28;20174;-83
2021/05/03 11:37:32;;;;;;;13.30;5.95;;;;;;;16.18;42.09;101856.09;5169563;28;20026;-81
2021/05/03 11:40:22;;;;;;;8.02;5.72;;;;;;;15.87;40.01;101847.16;5175339;28;20030;-81
2021/05/03 11:43:06;;;;;;;10.77;5.85;;;;;;;16.05;41.03;101845.84;5166343;28;20030;-82
2021/05/03 11:45:39;;;;;;;11.15;6.38;;;;;;;16.12;39.96;101835.16;5166568;28;20030;-82
2021/05/03 11:48:09;;;;;;;7.82;5.40;;;;;;;16.12;40.04;101840.59;5176420;28;20045;-81
2021/05/03 11:50:40;;;;;;;11.55;5.80;;;;;;;16.33;39.83;101831.81;5175940;28;20026;-82
2021/05/03 11:53:10;;;;;;;9.60;6.43;;;;;;;16.32;37.70;101827.44;5188712;28;20026;-80
2021/05/03 11:55:41;;;;;;;8.75;5.75;;;;;;;16.36;39.21;101819.75;5171444;28;20045;-83